Аэропорт: Актобе. Актобе

ICAO: UATT

METAR:
2019-09-21 16:00:00
UATT 211600Z 35003MPS 9000 -SHRA SCT040CB 10/09 Q1002 R31/29//50 NOSIG RMK QFE732/0976
METAR:
2019-09-21 11:00:00
TAF UATT 211100Z 2112/2212 03009MPS 5000 -SHRA BKN020CB TX16/2112Z TN06/2201Z TEMPO 2115/2203 30008MPS 3100 BR BKN005 BKN015CB TEMPO 2203/2212 27011MPS